Time;durP1;ratioP1;P1;durP2;ratioP2;P2;SDS_P1;SDS_P2;PMS_P1;PMS_P2;Temp;Humidity;BMP_temperature;BMP_pressure;BME280_temperature;BME280_humidity;BME280_pressure;Samples;Min_cycle;Max_cycle;Signal;HPM_P1;HPM_P2
2023/12/13 00:01:46;;;;;;;52.40;31.13;;;9.30;99.90;;;;;;5055226;28;20254;-36
2023/12/13 00:04:12;;;;;;;43.00;27.27;;;9.30;99.90;;;;;;5023652;28;20195;-39
2023/12/13 00:06:38;;;;;;;48.47;27.95;;;9.30;99.90;;;;;;5056168;28;20962;-35
2023/12/13 00:09:08;;;;;;;47.97;28.77;;;9.30;99.90;;;;;;5023500;28;20184;-40
2023/12/13 00:11:34;;;;;;;45.60;27.15;;;9.30;99.90;;;;;;5023973;28;20188;-38
2023/12/13 00:14:00;;;;;;;43.17;27.50;;;9.30;99.90;;;;;;5023148;28;20300;-38
2023/12/13 00:16:26;;;;;;;41.95;26.80;;;9.20;99.90;;;;;;5023920;28;20766;-42
2023/12/13 00:18:52;;;;;;;44.47;27.00;;;9.20;99.90;;;;;;5024271;28;20202;-40
2023/12/13 00:21:18;;;;;;;43.45;27.25;;;9.20;99.90;;;;;;5055706;28;20377;-41
2023/12/13 00:23:48;;;;;;;45.80;27.77;;;9.20;99.90;;;;;;5022936;28;20279;-39
2023/12/13 00:26:18;;;;;;;46.45;29.20;;;9.20;99.90;;;;;;5022254;28;20244;-39
2023/12/13 00:28:45;;;;;;;46.15;28.95;;;9.20;99.90;;;;;;5025237;28;20194;-41
2023/12/13 00:31:12;;;;;;;49.17;30.48;;;9.20;99.90;;;;;;5023889;28;20223;-40
2023/12/13 00:33:38;;;;;;;50.60;30.17;;;9.20;99.90;;;;;;5023335;28;20175;-38
2023/12/13 00:36:05;;;;;;;45.00;27.70;;;9.20;99.90;;;;;;5023442;28;20302;-39
2023/12/13 00:38:31;;;;;;;45.92;28.65;;;9.20;99.90;;;;;;5023343;28;20230;-36
2023/12/13 00:40:57;;;;;;;44.10;28.33;;;9.20;99.90;;;;;;5023448;28;20267;-41
2023/12/13 00:43:23;;;;;;;44.90;27.30;;;9.20;99.90;;;;;;5023900;28;20212;-38
2023/12/13 00:45:49;;;;;;;44.97;27.10;;;9.20;99.90;;;;;;5023510;28;20230;-35
2023/12/13 00:48:15;;;;;;;45.88;27.98;;;9.20;99.90;;;;;;5022145;28;20199;-39
2023/12/13 00:50:41;;;;;;;44.45;27.45;;;9.20;99.90;;;;;;5023508;28;20199;-37
2023/12/13 00:53:07;;;;;;;45.33;26.58;;;9.20;99.90;;;;;;5023149;28;20223;-39
2023/12/13 00:55:33;;;;;;;43.30;26.35;;;9.20;99.90;;;;;;5054986;28;20302;-38
2023/12/13 00:58:00;;;;;;;39.58;24.60;;;9.20;99.90;;;;;;5022767;28;20349;-38
2023/12/13 01:00:26;;;;;;;39.42;24.40;;;9.20;99.90;;;;;;5055394;28;20660;-38
2023/12/13 01:02:52;;;;;;;36.53;21.98;;;9.30;99.90;;;;;;5022957;28;20200;-41
2023/12/13 01:05:18;;;;;;;31.52;20.77;;;9.20;99.90;;;;;;5022891;28;21584;-36
2023/12/13 01:07:44;;;;;;;31.00;21.00;;;9.20;99.90;;;;;;5022901;28;20206;-47
2023/12/13 01:10:09;;;;;;;36.67;20.77;;;9.20;99.90;;;;;;5022643;28;20196;-35
2023/12/13 01:12:35;;;;;;;29.80;19.83;;;9.20;99.90;;;;;;5054070;28;20231;-39
2023/12/13 01:15:02;;;;;;;31.83;20.33;;;9.20;99.90;;;;;;5021424;28;20344;-42
2023/12/13 01:17:27;;;;;;;31.20;20.05;;;9.30;99.90;;;;;;5022933;28;20191;-41
2023/12/13 01:19:53;;;;;;;29.85;18.08;;;9.20;99.90;;;;;;5021075;28;20574;-40
2023/12/13 01:22:20;;;;;;;29.52;19.77;;;9.30;99.90;;;;;;5022085;28;20648;-45
2023/12/13 01:24:45;;;;;;;32.15;18.92;;;9.30;99.90;;;;;;5021870;28;20199;-37
2023/12/13 01:27:11;;;;;;;30.80;19.35;;;9.30;99.90;;;;;;5022449;28;20194;-35
2023/12/13 01:29:37;;;;;;;29.83;18.88;;;9.30;99.90;;;;;;5021408;28;20200;-41
2023/12/13 01:32:03;;;;;;;33.40;19.67;;;9.20;99.90;;;;;;5037520;28;20187;-38
2023/12/13 01:34:30;;;;;;;31.95;19.95;;;9.30;99.90;;;;;;5053630;28;20238;-45
2023/12/13 01:36:56;;;;;;;30.67;20.25;;;9.20;99.90;;;;;;5022527;28;20636;-42
2023/12/13 01:39:22;;;;;;;36.45;20.95;;;9.20;99.90;;;;;;5022090;28;20192;-42
2023/12/13 01:41:48;;;;;;;33.63;20.52;;;9.20;99.90;;;;;;5022350;28;20366;-40
2023/12/13 01:44:13;;;;;;;31.48;19.95;;;9.30;99.90;;;;;;5022667;28;20179;-39
2023/12/13 01:46:41;;;;;;;38.88;21.55;;;9.30;99.90;;;;;;5022275;28;20203;-39
2023/12/13 01:49:08;;;;;;;32.65;20.85;;;9.30;99.90;;;;;;5022064;28;20269;-36
2023/12/13 01:51:35;;;;;;;34.40;19.95;;;9.30;99.90;;;;;;5021937;28;20191;-41
2023/12/13 01:54:08;;;;;;;35.22;21.00;;;9.30;99.90;;;;;;5022127;28;20644;-37
2023/12/13 01:56:35;;;;;;;34.80;21.15;;;9.30;99.90;;;;;;5021891;28;20239;-44
2023/12/13 01:59:01;;;;;;;34.42;20.75;;;9.30;99.90;;;;;;5021358;28;20192;-39
2023/12/13 02:01:28;;;;;;;35.88;21.30;;;9.30;99.90;;;;;;5021869;28;20187;-42
2023/12/13 02:03:54;;;;;;;33.30;20.80;;;9.30;99.90;;;;;;5006727;28;20180;-42
2023/12/13 02:06:20;;;;;;;36.13;21.77;;;9.30;99.90;;;;;;5021362;28;20508;-38
2023/12/13 02:08:46;;;;;;;39.25;21.63;;;9.30;99.90;;;;;;5053241;28;20200;-37
2023/12/13 02:11:12;;;;;;;39.67;21.85;;;9.30;99.90;;;;;;5021765;28;20195;-40
2023/12/13 02:13:38;;;;;;;38.28;24.17;;;9.30;99.90;;;;;;5021794;28;20238;-45
2023/12/13 02:16:04;;;;;;;44.55;25.67;;;9.30;99.90;;;;;;5021826;28;20300;-38
2023/12/13 02:18:30;;;;;;;41.97;24.58;;;9.40;99.90;;;;;;5021442;28;20188;-40
2023/12/13 02:20:56;;;;;;;45.75;27.10;;;9.30;99.90;;;;;;5021643;28;20195;-39
2023/12/13 02:23:22;;;;;;;51.45;28.83;;;9.30;99.90;;;;;;5021244;28;20652;-42
2023/12/13 02:25:56;;;;;;;50.00;28.77;;;9.30;99.90;;;;;;5021551;28;20236;-38
2023/12/13 02:28:24;;;;;;;55.17;29.05;;;9.30;99.90;;;;;;5021450;28;20198;-42
2023/12/13 02:30:53;;;;;;;48.33;27.55;;;9.30;99.90;;;;;;5019785;28;20211;-43
2023/12/13 02:33:25;;;;;;;48.38;27.27;;;9.30;99.90;;;;;;5020359;28;20179;-46
2023/12/13 02:35:56;;;;;;;46.55;26.35;;;9.30;99.90;;;;;;5021275;28;20246;-44
2023/12/13 02:38:22;;;;;;;51.88;28.40;;;9.30;99.90;;;;;;5021478;28;20207;-38
2023/12/13 02:40:48;;;;;;;48.25;28.25;;;9.40;99.90;;;;;;5021088;28;20187;-42
2023/12/13 02:43:14;;;;;;;50.78;28.38;;;9.40;99.90;;;;;;5021298;28;20179;-39
2023/12/13 02:45:41;;;;;;;46.30;27.17;;;9.40;99.90;;;;;;5021281;28;20188;-39
2023/12/13 02:48:07;;;;;;;48.58;27.92;;;9.30;99.90;;;;;;5021028;28;20279;-39
2023/12/13 02:50:38;;;;;;;50.45;28.70;;;9.40;99.90;;;;;;5053299;28;20183;-37
2023/12/13 02:53:05;;;;;;;50.08;27.83;;;9.30;99.90;;;;;;5019661;28;20188;-40
2023/12/13 02:55:31;;;;;;;50.33;29.02;;;9.30;99.90;;;;;;5021184;28;20219;-36
2023/12/13 02:57:57;;;;;;;53.25;28.90;;;9.30;99.90;;;;;;5021207;28;20184;-44
2023/12/13 03:00:23;;;;;;;57.42;30.10;;;9.30;99.90;;;;;;5020916;28;20212;-44
2023/12/13 03:02:48;;;;;;;53.05;29.08;;;9.30;99.90;;;;;;5020527;28;20236;-48
2023/12/13 03:05:14;;;;;;;54.65;28.88;;;9.30;99.90;;;;;;5020834;28;20199;-41
2023/12/13 03:07:41;;;;;;;49.72;28.67;;;9.30;99.90;;;;;;5020985;28;20188;-38
2023/12/13 03:10:07;;;;;;;54.03;28.88;;;9.30;99.90;;;;;;5021096;28;20253;-43
2023/12/13 03:12:33;;;;;;;53.88;30.02;;;9.30;99.90;;;;;;5020536;28;20279;-40
2023/12/13 03:14:59;;;;;;;50.33;28.13;;;9.30;99.90;;;;;;5019635;28;20212;-38
2023/12/13 03:17:25;;;;;;;57.03;29.48;;;9.30;99.90;;;;;;5020901;28;20275;-37
2023/12/13 03:19:51;;;;;;;51.25;28.55;;;9.40;99.90;;;;;;5020913;28;20606;-37
2023/12/13 03:22:17;;;;;;;50.78;27.70;;;9.40;99.90;;;;;;5020725;28;20184;-35
2023/12/13 03:24:43;;;;;;;50.05;28.27;;;9.40;99.90;;;;;;5021182;28;20199;-42
2023/12/13 03:27:09;;;;;;;47.83;27.95;;;9.40;99.90;;;;;;5021252;28;20223;-39
2023/12/13 03:29:35;;;;;;;51.17;29.00;;;9.40;99.90;;;;;;5020829;28;20222;-36
2023/12/13 03:32:00;;;;;;;52.30;28.98;;;9.40;99.90;;;;;;5020879;28;20341;-38
2023/12/13 03:34:26;;;;;;;48.72;28.15;;;9.40;99.90;;;;;;5020137;28;20191;-43
2023/12/13 03:36:52;;;;;;;48.00;27.40;;;9.40;99.90;;;;;;5020821;28;20192;-37
2023/12/13 03:39:18;;;;;;;48.72;27.42;;;9.40;99.90;;;;;;5021328;28;20191;-42
2023/12/13 03:41:44;;;;;;;46.75;27.58;;;9.40;99.90;;;;;;5020703;28;20184;-38
2023/12/13 03:44:10;;;;;;;50.03;27.75;;;9.40;99.90;;;;;;5020510;28;20192;-39
2023/12/13 03:46:36;;;;;;;52.20;27.08;;;9.40;99.90;;;;;;5052881;28;20180;-44
2023/12/13 03:49:01;;;;;;;44.78;26.58;;;9.40;99.90;;;;;;5022612;28;20200;-44
2023/12/13 03:51:27;;;;;;;46.70;27.17;;;9.40;99.90;;;;;;5025183;28;20188;-42
2023/12/13 03:53:53;;;;;;;46.00;26.90;;;9.40;99.90;;;;;;5023557;28;20249;-36
2023/12/13 03:56:19;;;;;;;45.67;26.95;;;9.40;99.90;;;;;;5022722;28;20212;-40
2023/12/13 03:58:45;;;;;;;47.90;26.80;;;9.40;99.90;;;;;;5023247;28;20198;-43
2023/12/13 04:01:11;;;;;;;43.95;25.50;;;9.40;99.90;;;;;;5023867;28;20192;-38
2023/12/13 04:03:37;;;;;;;46.95;25.77;;;9.40;99.90;;;;;;5024416;28;20578;-42
2023/12/13 04:06:03;;;;;;;43.13;25.08;;;9.40;99.90;;;;;;5010422;28;20558;-39
2023/12/13 04:08:29;;;;;;;45.65;25.13;;;9.40;99.90;;;;;;5055445;28;20215;-38
2023/12/13 04:10:55;;;;;;;43.92;25.17;;;9.40;99.90;;;;;;5011059;28;20595;-44
2023/12/13 04:13:22;;;;;;;44.17;25.27;;;9.40;99.90;;;;;;5054549;28;21412;-40
2023/12/13 04:15:48;;;;;;;43.88;24.90;;;9.40;99.90;;;;;;5023738;28;20243;-39
2023/12/13 04:18:15;;;;;;;39.20;23.88;;;9.40;99.90;;;;;;5023655;28;20703;-36
2023/12/13 04:20:40;;;;;;;47.42;25.15;;;9.40;99.90;;;;;;5023337;28;20207;-47
2023/12/13 04:23:06;;;;;;;43.88;24.50;;;9.40;99.90;;;;;;5023752;28;20188;-40
2023/12/13 04:25:32;;;;;;;45.03;26.48;;;9.40;99.90;;;;;;5023921;28;20660;-36
2023/12/13 04:27:58;;;;;;;43.92;24.98;;;9.50;99.90;;;;;;5023711;28;20221;-43
2023/12/13 04:30:24;;;;;;;41.83;25.55;;;9.40;99.90;;;;;;5023203;28;20195;-38
2023/12/13 04:32:50;;;;;;;44.53;24.40;;;9.50;99.90;;;;;;5023796;28;20200;-38
2023/12/13 04:35:15;;;;;;;40.47;24.13;;;9.50;99.90;;;;;;5023040;28;20204;-44
2023/12/13 04:37:41;;;;;;;37.78;23.58;;;9.50;99.90;;;;;;5022829;28;20192;-39
2023/12/13 04:40:07;;;;;;;40.05;24.02;;;9.50;99.90;;;;;;5022792;28;20184;-42
2023/12/13 04:42:34;;;;;;;43.05;24.13;;;9.50;99.90;;;;;;5020909;28;20180;-37
2023/12/13 04:44:59;;;;;;;38.15;22.88;;;9.50;99.90;;;;;;5023403;28;20266;-36
2023/12/13 04:47:25;;;;;;;38.40;23.27;;;9.50;99.90;;;;;;5023854;28;20322;-40
2023/12/13 04:49:51;;;;;;;39.05;23.42;;;9.50;99.90;;;;;;5022877;28;20188;-37
2023/12/13 04:52:17;;;;;;;33.42;21.83;;;9.50;99.90;;;;;;5022695;28;20222;-38
2023/12/13 04:54:43;;;;;;;34.25;21.45;;;9.50;99.90;;;;;;5023495;28;20192;-36
2023/12/13 04:57:09;;;;;;;35.78;22.17;;;9.60;99.90;;;;;;5022930;28;21121;-41
2023/12/13 04:59:35;;;;;;;37.75;22.30;;;9.60;99.90;;;;;;5054020;28;20195;-38
2023/12/13 05:02:01;;;;;;;35.75;22.40;;;9.60;99.90;;;;;;5023012;28;20203;-39
2023/12/13 05:04:27;;;;;;;34.25;21.15;;;9.60;99.90;;;;;;5022939;28;20192;-38
2023/12/13 05:06:53;;;;;;;39.80;22.55;;;9.60;99.90;;;;;;5021455;28;20281;-36
2023/12/13 05:09:19;;;;;;;37.40;22.50;;;9.60;99.90;;;;;;5022519;28;20192;-42
2023/12/13 05:11:45;;;;;;;35.97;22.00;;;9.60;99.90;;;;;;5020093;28;20184;-44
2023/12/13 05:14:10;;;;;;;32.03;21.42;;;9.60;99.90;;;;;;5022803;28;21702;-41
2023/12/13 05:16:36;;;;;;;33.25;20.10;;;9.60;99.90;;;;;;5022054;28;20247;-35
2023/12/13 05:19:02;;;;;;;32.97;20.45;;;9.60;99.90;;;;;;5022423;28;20203;-39
2023/12/13 05:21:28;;;;;;;31.83;20.17;;;9.60;99.90;;;;;;5022717;28;20206;-43
2023/12/13 05:23:54;;;;;;;31.25;20.45;;;9.60;99.90;;;;;;5021171;28;20188;-37
2023/12/13 05:26:20;;;;;;;32.22;21.13;;;9.60;99.90;;;;;;5022874;28;20558;-44
2023/12/13 05:28:46;;;;;;;31.65;20.40;;;9.60;99.90;;;;;;5022519;28;20196;-38
2023/12/13 05:31:23;;;;;;;32.13;20.38;;;9.50;99.90;;;;;;5053662;28;20219;-37
2023/12/13 05:33:49;;;;;;;34.60;21.30;;;9.50;99.90;;;;;;5022079;28;20213;-40
2023/12/13 05:36:15;;;;;;;32.00;20.05;;;9.60;99.90;;;;;;5022079;28;20208;-39
2023/12/13 05:38:42;;;;;;;37.45;22.00;;;9.50;99.90;;;;;;5022499;28;20199;-34
2023/12/13 05:41:08;;;;;;;36.20;20.65;;;9.50;99.90;;;;;;5022580;28;20745;-44
2023/12/13 05:43:35;;;;;;;33.58;21.60;;;9.50;99.90;;;;;;5022034;28;20196;-39
2023/12/13 05:46:10;;;;;;;35.20;22.27;;;9.50;99.90;;;;;;5053410;28;20607;-36
2023/12/13 05:48:35;;;;;;;37.28;22.67;;;9.50;99.90;;;;;;5021678;28;20193;-41
2023/12/13 05:51:01;;;;;;;33.85;21.90;;;9.50;99.90;;;;;;5021987;28;20200;-39
2023/12/13 05:53:28;;;;;;;40.00;21.55;;;9.50;99.90;;;;;;5021990;28;20249;-39
2023/12/13 05:55:54;;;;;;;38.05;22.15;;;9.50;99.90;;;;;;5021722;28;20269;-39
2023/12/13 05:58:20;;;;;;;37.67;22.00;;;9.50;99.90;;;;;;5021363;28;20594;-42
2023/12/13 06:00:46;;;;;;;33.53;23.95;;;9.50;99.90;;;;;;5021545;28;20214;-38
2023/12/13 06:03:11;;;;;;;33.85;22.05;;;9.50;99.90;;;;;;5021434;28;20192;-43
2023/12/13 06:05:37;;;;;;;40.55;23.95;;;9.50;99.90;;;;;;5021230;28;20490;-43
2023/12/13 06:08:03;;;;;;;34.67;22.77;;;9.50;99.90;;;;;;5019834;28;20278;-43
2023/12/13 06:10:29;;;;;;;36.25;22.77;;;9.60;99.90;;;;;;5021833;28;20188;-41
2023/12/13 06:12:56;;;;;;;34.35;23.20;;;9.50;99.90;;;;;;5021513;28;20234;-42
2023/12/13 06:15:22;;;;;;;38.25;22.98;;;9.50;99.90;;;;;;5052657;28;20223;-37
2023/12/13 06:17:48;;;;;;;37.25;23.83;;;9.50;99.90;;;;;;5021492;28;20183;-40
2023/12/13 06:20:14;;;;;;;38.47;22.42;;;9.50;99.90;;;;;;5021017;28;20196;-41
2023/12/13 06:22:40;;;;;;;31.42;20.52;;;9.60;99.90;;;;;;5021404;28;20192;-40
2023/12/13 06:25:07;;;;;;;37.53;23.50;;;9.50;99.90;;;;;;5021804;28;20191;-43
2023/12/13 06:27:33;;;;;;;37.67;23.40;;;9.50;99.90;;;;;;5020667;28;20203;-43
2023/12/13 06:29:59;;;;;;;45.00;24.98;;;9.50;99.90;;;;;;5021816;28;20192;-38
2023/12/13 06:32:25;;;;;;;38.92;23.35;;;9.50;99.90;;;;;;5020138;28;20191;-41
2023/12/13 06:34:51;;;;;;;36.15;22.88;;;9.60;99.90;;;;;;5021347;28;20659;-42
2023/12/13 06:37:17;;;;;;;38.63;24.02;;;9.50;99.90;;;;;;5021141;28;20191;-40
2023/12/13 06:39:43;;;;;;;36.75;23.77;;;9.50;99.90;;;;;;5021471;28;20195;-39
2023/12/13 06:42:08;;;;;;;41.40;24.10;;;9.60;99.90;;;;;;5051986;28;20240;-42
2023/12/13 06:44:37;;;;;;;37.33;22.08;;;9.60;99.90;;;;;;5021306;28;20180;-47
2023/12/13 06:47:04;;;;;;;39.95;25.88;;;9.50;99.90;;;;;;5019661;28;20175;-46
2023/12/13 06:49:31;;;;;;;38.20;24.45;;;9.60;99.90;;;;;;5020961;28;20700;-38
2023/12/13 06:51:57;;;;;;;38.45;24.73;;;9.60;99.90;;;;;;5020344;28;20187;-37
2023/12/13 06:54:23;;;;;;;34.55;22.02;;;9.60;99.90;;;;;;5020464;28;20559;-37
2023/12/13 06:56:49;;;;;;;37.33;23.30;;;9.60;99.90;;;;;;5019096;28;20211;-46
2023/12/13 06:59:15;;;;;;;39.10;23.50;;;9.60;99.90;;;;;;5021016;28;20209;-40
2023/12/13 07:01:41;;;;;;;38.22;24.58;;;9.60;99.90;;;;;;5020464;28;20317;-43
2023/12/13 07:04:07;;;;;;;41.13;24.15;;;9.60;99.90;;;;;;5020977;28;20214;-40
2023/12/13 07:06:33;;;;;;;38.60;24.83;;;9.60;99.90;;;;;;5020202;28;20215;-38
2023/12/13 07:08:59;;;;;;;36.67;24.50;;;9.60;99.90;;;;;;5020242;28;20195;-41
2023/12/13 07:11:25;;;;;;;36.72;24.55;;;9.60;99.90;;;;;;5020868;28;20196;-43
2023/12/13 07:13:52;;;;;;;37.33;24.48;;;9.60;99.90;;;;;;5018658;28;20232;-37
2023/12/13 07:16:17;;;;;;;43.45;26.42;;;9.60;99.90;;;;;;5019214;28;20676;-44
2023/12/13 07:18:43;;;;;;;35.33;23.23;;;9.60;99.90;;;;;;5019718;28;20207;-43
2023/12/13 07:21:09;;;;;;;43.90;26.10;;;9.60;99.90;;;;;;5020198;28;20184;-41
2023/12/13 07:23:36;;;;;;;43.63;24.90;;;9.60;99.90;;;;;;5022153;28;20188;-44
2023/12/13 07:26:02;;;;;;;41.33;26.48;;;9.60;99.90;;;;;;5022928;28;20225;-36
2023/12/13 07:28:30;;;;;;;42.30;24.38;;;9.60;99.90;;;;;;5024452;28;20199;-40
2023/12/13 07:30:56;;;;;;;41.05;25.42;;;9.70;99.90;;;;;;5022337;28;20180;-38
2023/12/13 07:33:23;;;;;;;42.17;25.50;;;9.70;99.90;;;;;;5023800;28;20192;-41
2023/12/13 07:35:49;;;;;;;47.85;25.42;;;9.70;99.90;;;;;;5023804;28;20246;-43
2023/12/13 07:38:15;;;;;;;46.15;26.75;;;9.70;99.90;;;;;;5023880;28;20188;-41
2023/12/13 07:40:47;;;;;;;43.10;25.95;;;9.70;99.90;;;;;;5024457;28;20671;-39
2023/12/13 07:43:13;;;;;;;42.60;27.08;;;9.70;99.90;;;;;;5023958;28;20214;-41
2023/12/13 07:45:39;;;;;;;43.33;26.60;;;9.70;99.90;;;;;;5039260;28;20196;-42
2023/12/13 07:48:05;;;;;;;40.63;26.75;;;9.70;99.90;;;;;;5023411;28;20188;-41
2023/12/13 07:50:31;;;;;;;43.70;26.52;;;9.70;99.90;;;;;;5020862;28;20262;-46
2023/12/13 07:52:57;;;;;;;44.40;26.60;;;9.70;99.90;;;;;;5023630;28;20191;-36
2023/12/13 07:55:24;;;;;;;47.33;27.58;;;9.80;99.90;;;;;;5024153;28;20211;-41
2023/12/13 07:57:50;;;;;;;42.75;29.17;;;9.80;99.90;;;;;;5021607;28;20211;-38
2023/12/13 08:00:16;;;;;;;43.92;27.00;;;9.80;99.90;;;;;;5055523;28;20287;-42
2023/12/13 08:02:42;;;;;;;47.13;27.25;;;9.80;99.90;;;;;;5023837;28;20196;-38
2023/12/13 08:05:08;;;;;;;42.75;27.98;;;9.80;99.90;;;;;;5022799;28;20188;-41
2023/12/13 08:07:35;;;;;;;52.55;29.27;;;9.80;99.90;;;;;;5024113;28;20199;-35
2023/12/13 08:10:07;;;;;;;47.78;30.20;;;9.80;99.90;;;;;;5023472;28;20184;-44
2023/12/13 08:12:36;;;;;;;45.63;28.83;;;9.80;99.90;;;;;;5023561;28;20192;-41
2023/12/13 08:15:05;;;;;;;47.15;29.02;;;9.80;99.90;;;;;;5037799;28;20208;-41
2023/12/13 08:17:33;;;;;;;45.45;27.67;;;9.80;99.90;;;;;;5023352;28;20228;-46
2023/12/13 08:20:00;;;;;;;43.83;26.42;;;9.80;99.90;;;;;;5023490;28;20184;-41
2023/12/13 08:22:26;;;;;;;43.00;26.80;;;9.90;99.90;;;;;;5023079;28;20656;-41
2023/12/13 08:24:52;;;;;;;49.13;27.90;;;9.90;99.90;;;;;;5022060;28;20216;-39
2023/12/13 08:27:18;;;;;;;39.72;26.02;;;9.90;99.90;;;;;;5023169;28;20246;-38
2023/12/13 08:29:44;;;;;;;45.20;26.58;;;9.90;99.90;;;;;;5023070;28;20351;-40
2023/12/13 08:32:10;;;;;;;41.08;26.85;;;9.90;99.90;;;;;;5023154;28;20290;-38
2023/12/13 08:34:36;;;;;;;45.65;27.30;;;9.90;99.90;;;;;;5023201;28;20702;-40
2023/12/13 08:37:02;;;;;;;42.50;27.77;;;9.90;99.90;;;;;;5022001;28;20192;-37
2023/12/13 08:39:28;;;;;;;44.28;28.02;;;9.90;99.90;;;;;;5023026;28;20586;-45
2023/12/13 08:41:53;;;;;;;45.92;27.55;;;9.90;99.90;;;;;;5021293;28;22176;-37
2023/12/13 08:48:26;;;;;;;45.47;26.45;;;9.90;99.90;;;;;;4913359;28;21323;-40
2023/12/13 08:50:52;;;;;;;38.25;25.33;;;9.90;99.90;;;;;;4941366;29;20210;-38
2023/12/13 08:53:18;;;;;;;44.08;26.40;;;9.90;99.90;;;;;;4941847;29;20217;-40
2023/12/13 08:55:44;;;;;;;45.42;27.55;;;9.90;99.90;;;;;;4941443;29;20218;-38
2023/12/13 08:58:11;;;;;;;38.58;26.05;;;9.90;99.90;;;;;;4941487;29;20206;-41
2023/12/13 09:00:37;;;;;;;43.83;27.90;;;9.90;99.90;;;;;;4926114;29;20201;-37
2023/12/13 09:03:03;;;;;;;46.95;27.67;;;9.90;99.90;;;;;;4941589;29;20191;-39
2023/12/13 09:05:29;;;;;;;46.40;25.75;;;9.90;99.90;;;;;;4941824;29;21259;-39
2023/12/13 09:07:55;;;;;;;42.60;27.35;;;9.90;99.90;;;;;;4925786;29;20206;-45
2023/12/13 09:10:22;;;;;;;52.15;29.08;;;10.00;99.90;;;;;;4941050;29;20784;-44
